sensor_id;sensor_type;location;lat;lon;timestamp;pressure;altitude;pressure_sealevel;temperature;humidity
12624;BME280;6377;42.836;23.998;2023-03-04T00:00:31;95718.38;;;6.52;100.00
12624;BME280;6377;42.836;23.998;2023-03-04T00:02:58;95703.16;;;6.38;100.00
12624;BME280;6377;42.836;23.998;2023-03-04T00:05:25;95709.88;;;6.58;100.00
12624;BME280;6377;42.836;23.998;2023-03-04T00:07:52;95697.66;;;6.49;100.00
12624;BME280;6377;42.836;23.998;2023-03-04T00:10:19;95709.03;;;6.58;100.00
12624;BME280;6377;42.836;23.998;2023-03-04T00:12:47;95710.88;;;6.57;100.00
12624;BME280;6377;42.836;23.998;2023-03-04T00:15:14;95715.81;;;6.60;100.00
12624;BME280;6377;42.836;23.998;2023-03-04T00:17:42;95703.28;;;6.54;100.00
12624;BME280;6377;42.836;23.998;2023-03-04T00:20:12;95709.88;;;6.58;100.00
12624;BME280;6377;42.836;23.998;2023-03-04T00:22:39;95701.03;;;6.59;100.00
12624;BME280;6377;42.836;23.998;2023-03-04T00:25:06;95707.94;;;6.60;100.00
12624;BME280;6377;42.836;23.998;2023-03-04T00:27:34;95705.31;;;6.60;100.00
12624;BME280;6377;42.836;23.998;2023-03-04T00:30:01;95700.50;;;6.56;100.00
12624;BME280;6377;42.836;23.998;2023-03-04T00:32:28;95698.47;;;6.50;100.00
12624;BME280;6377;42.836;23.998;2023-03-04T00:34:57;95703.91;;;6.48;100.00
12624;BME280;6377;42.836;23.998;2023-03-04T00:37:24;95701.28;;;6.48;100.00
12624;BME280;6377;42.836;23.998;2023-03-04T00:39:51;95562.84;;;5.62;100.00
12624;BME280;6377;42.836;23.998;2023-03-04T00:42:18;95695.09;;;6.57;100.00
12624;BME280;6377;42.836;23.998;2023-03-04T00:44:45;95651.09;;;6.34;100.00
12624;BME280;6377;42.836;23.998;2023-03-04T00:47:14;95694.16;;;6.66;100.00
12624;BME280;6377;42.836;23.998;2023-03-04T00:49:41;95690.13;;;6.72;100.00
12624;BME280;6377;42.836;23.998;2023-03-04T00:52:09;95693.41;;;6.74;100.00
12624;BME280;6377;42.836;23.998;2023-03-04T00:54:36;95694.31;;;6.65;100.00
12624;BME280;6377;42.836;23.998;2023-03-04T00:57:04;95686.13;;;6.68;100.00
12624;BME280;6377;42.836;23.998;2023-03-04T00:59:31;95660.88;;;6.49;100.00
12624;BME280;6377;42.836;23.998;2023-03-04T01:01:58;95695.50;;;6.70;100.00
12624;BME280;6377;42.836;23.998;2023-03-04T01:04:26;95685.31;;;6.67;100.00
12624;BME280;6377;42.836;23.998;2023-03-04T01:06:53;95686.56;;;6.63;100.00
12624;BME280;6377;42.836;23.998;2023-03-04T01:09:21;95684.44;;;6.59;100.00
12624;BME280;6377;42.836;23.998;2023-03-04T01:11:48;95681.97;;;6.57;100.00
12624;BME280;6377;42.836;23.998;2023-03-04T01:14:16;95691.34;;;6.60;100.00
12624;BME280;6377;42.836;23.998;2023-03-04T01:16:43;95687.41;;;6.64;100.00
12624;BME280;6377;42.836;23.998;2023-03-04T01:19:10;95685.59;;;6.64;100.00
12624;BME280;6377;42.836;23.998;2023-03-04T01:21:37;95658.84;;;6.43;100.00
12624;BME280;6377;42.836;23.998;2023-03-04T01:24:05;95667.00;;;6.58;100.00
12624;BME280;6377;42.836;23.998;2023-03-04T01:26:34;95673.00;;;6.68;100.00
12624;BME280;6377;42.836;23.998;2023-03-04T01:29:01;95674.97;;;6.66;100.00
12624;BME280;6377;42.836;23.998;2023-03-04T01:31:29;95653.81;;;6.50;100.00
12624;BME280;6377;42.836;23.998;2023-03-04T01:33:56;95672.47;;;6.64;100.00
12624;BME280;6377;42.836;23.998;2023-03-04T01:36:23;95666.91;;;6.67;100.00
12624;BME280;6377;42.836;23.998;2023-03-04T01:38:50;95671.50;;;6.65;100.00
12624;BME280;6377;42.836;23.998;2023-03-04T01:41:21;95670.06;;;6.45;100.00
12624;BME280;6377;42.836;23.998;2023-03-04T01:43:50;95668.59;;;6.25;100.00
12624;BME280;6377;42.836;23.998;2023-03-04T01:46:18;95665.25;;;6.23;100.00
12624;BME280;6377;42.836;23.998;2023-03-04T01:48:46;95663.53;;;6.14;100.00
12624;BME280;6377;42.836;23.998;2023-03-04T01:51:15;95660.19;;;6.22;100.00
12624;BME280;6377;42.836;23.998;2023-03-04T01:53:43;95660.84;;;6.24;100.00
12624;BME280;6377;42.836;23.998;2023-03-04T01:56:16;95659.88;;;6.25;100.00
12624;BME280;6377;42.836;23.998;2023-03-04T01:58:49;95637.88;;;6.08;100.00
12624;BME280;6377;42.836;23.998;2023-03-04T02:01:33;95614.16;;;5.92;100.00
12624;BME280;6377;42.836;23.998;2023-03-04T02:04:01;95660.84;;;6.24;100.00
12624;BME280;6377;42.836;23.998;2023-03-04T02:06:28;95630.91;;;5.99;100.00
12624;BME280;6377;42.836;23.998;2023-03-04T02:08:56;95682.16;;;6.20;100.00
12624;BME280;6377;42.836;23.998;2023-03-04T02:11:24;95655.28;;;6.27;100.00
12624;BME280;6377;42.836;23.998;2023-03-04T02:13:51;95654.00;;;6.31;100.00
12624;BME280;6377;42.836;23.998;2023-03-04T02:16:19;95600.13;;;6.01;100.00
12624;BME280;6377;42.836;23.998;2023-03-04T02:18:47;95656.22;;;6.43;100.00
12624;BME280;6377;42.836;23.998;2023-03-04T02:21:18;95654.94;;;6.47;100.00
12624;BME280;6377;42.836;23.998;2023-03-04T02:23:55;95649.91;;;6.54;100.00
12624;BME280;6377;42.836;23.998;2023-03-04T02:26:26;95643.34;;;6.58;100.00
12624;BME280;6377;42.836;23.998;2023-03-04T02:28:54;95644.50;;;6.55;100.00
12624;BME280;6377;42.836;23.998;2023-03-04T02:31:25;95645.00;;;6.59;100.00
12624;BME280;6377;42.836;23.998;2023-03-04T02:33:56;95644.19;;;6.58;100.00
12624;BME280;6377;42.836;23.998;2023-03-04T02:36:24;95603.59;;;6.27;100.00
12624;BME280;6377;42.836;23.998;2023-03-04T02:38:53;95643.22;;;6.59;100.00
12624;BME280;6377;42.836;23.998;2023-03-04T02:41:23;95641.56;;;6.58;100.00
12624;BME280;6377;42.836;23.998;2023-03-04T02:43:54;95622.38;;;6.40;100.00
12624;BME280;6377;42.836;23.998;2023-03-04T02:46:22;95617.28;;;6.39;100.00
12624;BME280;6377;42.836;23.998;2023-03-04T02:48:49;95637.97;;;6.59;100.00
12624;BME280;6377;42.836;23.998;2023-03-04T02:51:17;95643.88;;;6.61;100.00
12624;BME280;6377;42.836;23.998;2023-03-04T02:53:44;95629.28;;;6.41;100.00
12624;BME280;6377;42.836;23.998;2023-03-04T02:56:11;95642.06;;;6.62;100.00
12624;BME280;6377;42.836;23.998;2023-03-04T02:58:38;95641.25;;;6.61;100.00
12624;BME280;6377;42.836;23.998;2023-03-04T03:01:07;95624.69;;;6.43;100.00
12624;BME280;6377;42.836;23.998;2023-03-04T03:03:34;95633.28;;;6.45;100.00
12624;BME280;6377;42.836;23.998;2023-03-04T03:06:02;95634.25;;;6.44;100.00
12624;BME280;6377;42.836;23.998;2023-03-04T03:08:29;95637.69;;;6.45;100.00
12624;BME280;6377;42.836;23.998;2023-03-04T03:10:56;95650.16;;;6.43;100.00
12624;BME280;6377;42.836;23.998;2023-03-04T03:13:23;95631.03;;;6.33;100.00
12624;BME280;6377;42.836;23.998;2023-03-04T03:15:50;95633.00;;;6.31;100.00
12624;BME280;6377;42.836;23.998;2023-03-04T03:18:19;95640.06;;;6.30;100.00
12624;BME280;6377;42.836;23.998;2023-03-04T03:20:46;95642.31;;;6.25;100.00
12624;BME280;6377;42.836;23.998;2023-03-04T03:23:13;95621.56;;;5.96;100.00
12624;BME280;6377;42.836;23.998;2023-03-04T03:25:42;95641.03;;;6.11;100.00
12624;BME280;6377;42.836;23.998;2023-03-04T03:28:09;95637.41;;;6.04;100.00
12624;BME280;6377;42.836;23.998;2023-03-04T03:30:37;95638.72;;;6.08;100.00
12624;BME280;6377;42.836;23.998;2023-03-04T03:33:04;95641.03;;;6.11;100.00
12624;BME280;6377;42.836;23.998;2023-03-04T03:35:32;95634.00;;;6.12;100.00
12624;BME280;6377;42.836;23.998;2023-03-04T03:37:59;95632.72;;;6.16;100.00
12624;BME280;6377;42.836;23.998;2023-03-04T03:40:27;95642.84;;;5.93;100.00
12624;BME280;6377;42.836;23.998;2023-03-04T03:42:54;95636.94;;;6.09;100.00
12624;BME280;6377;42.836;23.998;2023-03-04T03:45:21;95636.94;;;6.09;100.00
12624;BME280;6377;42.836;23.998;2023-03-04T03:47:48;95633.16;;;6.11;100.00
12624;BME280;6377;42.836;23.998;2023-03-04T03:50:15;95600.84;;;5.93;100.00
12624;BME280;6377;42.836;23.998;2023-03-04T03:52:44;95605.00;;;5.96;100.00
12624;BME280;6377;42.836;23.998;2023-03-04T03:55:11;95631.38;;;6.12;100.00
12624;BME280;6377;42.836;23.998;2023-03-04T03:57:38;95625.91;;;5.88;100.00
12624;BME280;6377;42.836;23.998;2023-03-04T04:00:06;95501.47;;;5.02;100.00
12624;BME280;6377;42.836;23.998;2023-03-04T04:02:34;95609.59;;;5.66;100.00
12624;BME280;6377;42.836;23.998;2023-03-04T04:05:01;95463.97;;;4.57;100.00
12624;BME280;6377;42.836;23.998;2023-03-04T04:07:29;95607.72;;;5.41;100.00
12624;BME280;6377;42.836;23.998;2023-03-04T04:09:57;95623.25;;;5.70;100.00
12624;BME280;6377;42.836;23.998;2023-03-04T04:12:24;95622.81;;;5.75;100.00
12624;BME280;6377;42.836;23.998;2023-03-04T04:14:52;95627.59;;;5.79;100.00
12624;BME280;6377;42.836;23.998;2023-03-04T04:17:19;95621.41;;;5.80;100.00
12624;BME280;6377;42.836;23.998;2023-03-04T04:19:46;95619.31;;;5.84;100.00
12624;BME280;6377;42.836;23.998;2023-03-04T04:22:15;95617.72;;;5.73;100.00
12624;BME280;6377;42.836;23.998;2023-03-04T04:24:43;95629.63;;;5.68;100.00
12624;BME280;6377;42.836;23.998;2023-03-04T04:27:12;95629.41;;;5.61;100.00
12624;BME280;6377;42.836;23.998;2023-03-04T04:29:39;95627.47;;;5.63;100.00
12624;BME280;6377;42.836;23.998;2023-03-04T04:32:07;95627.59;;;5.61;100.00
12624;BME280;6377;42.836;23.998;2023-03-04T04:34:34;95574.22;;;5.35;100.00
12624;BME280;6377;42.836;23.998;2023-03-04T04:37:01;95628.91;;;5.75;100.00
12624;BME280;6377;42.836;23.998;2023-03-04T04:39:28;95631.72;;;5.82;100.00
12624;BME280;6377;42.836;23.998;2023-03-04T04:41:55;95631.31;;;5.86;100.00
12624;BME280;6377;42.836;23.998;2023-03-04T04:44:24;95638.06;;;5.89;100.00
12624;BME280;6377;42.836;23.998;2023-03-04T04:46:51;95634.31;;;5.91;100.00
12624;BME280;6377;42.836;23.998;2023-03-04T04:49:18;95619.50;;;5.73;100.00
12624;BME280;6377;42.836;23.998;2023-03-04T04:51:46;95610.53;;;5.57;100.00
12624;BME280;6377;42.836;23.998;2023-03-04T04:54:14;95597.47;;;5.48;100.00
12624;BME280;6377;42.836;23.998;2023-03-04T04:56:41;95629.56;;;5.59;100.00
12624;BME280;6377;42.836;23.998;2023-03-04T04:59:08;95643.41;;;5.70;100.00
12624;BME280;6377;42.836;23.998;2023-03-04T05:01:37;95650.78;;;5.66;100.00
12624;BME280;6377;42.836;23.998;2023-03-04T05:04:04;95652.25;;;5.51;100.00
12624;BME280;6377;42.836;23.998;2023-03-04T05:06:31;95655.91;;;5.40;100.00
12624;BME280;6377;42.836;23.998;2023-03-04T05:08:58;95615.00;;;5.02;100.00
12624;BME280;6377;42.836;23.998;2023-03-04T05:11:26;95655.16;;;5.30;100.00
12624;BME280;6377;42.836;23.998;2023-03-04T05:13:53;95655.16;;;5.30;100.00
12624;BME280;6377;42.836;23.998;2023-03-04T05:16:20;95651.84;;;5.28;100.00
12624;BME280;6377;42.836;23.998;2023-03-04T05:18:49;95657.09;;;5.28;100.00
12624;BME280;6377;42.836;23.998;2023-03-04T05:21:16;95656.81;;;5.31;100.00
12624;BME280;6377;42.836;23.998;2023-03-04T05:23:43;95657.03;;;5.38;100.00
12624;BME280;6377;42.836;23.998;2023-03-04T05:26:12;95576.72;;;4.92;100.00
12624;BME280;6377;42.836;23.998;2023-03-04T05:28:40;95656.84;;;5.49;100.00
12624;BME280;6377;42.836;23.998;2023-03-04T05:31:07;95661.09;;;5.50;100.00
12624;BME280;6377;42.836;23.998;2023-03-04T05:33:35;95644.75;;;5.38;100.00
12624;BME280;6377;42.836;23.998;2023-03-04T05:36:05;95666.72;;;5.55;100.00
12624;BME280;6377;42.836;23.998;2023-03-04T05:38:32;95660.75;;;5.62;100.00
12624;BME280;6377;42.836;23.998;2023-03-04T05:41:01;95661.94;;;5.68;100.00
12624;BME280;6377;42.836;23.998;2023-03-04T05:43:28;95669.00;;;5.68;100.00
12624;BME280;6377;42.836;23.998;2023-03-04T05:45:55;95665.25;;;5.70;100.00
12624;BME280;6377;42.836;23.998;2023-03-04T05:48:23;95645.56;;;5.39;100.00
12624;BME280;6377;42.836;23.998;2023-03-04T05:50:52;95667.75;;;5.44;100.00
12624;BME280;6377;42.836;23.998;2023-03-04T05:53:21;95672.34;;;5.42;100.00
12624;BME280;6377;42.836;23.998;2023-03-04T05:55:49;95668.88;;;5.42;100.00
12624;BME280;6377;42.836;23.998;2023-03-04T05:58:17;95593.88;;;4.77;100.00
12624;BME280;6377;42.836;23.998;2023-03-04T06:00:44;95662.66;;;5.43;100.00
12624;BME280;6377;42.836;23.998;2023-03-04T06:03:14;95651.34;;;5.42;100.00
12624;BME280;6377;42.836;23.998;2023-03-04T06:05:41;95676.78;;;5.59;100.00
12624;BME280;6377;42.836;23.998;2023-03-04T06:08:09;95641.50;;;5.27;100.00
12624;BME280;6377;42.836;23.998;2023-03-04T06:10:39;95626.84;;;5.06;100.00
12624;BME280;6377;42.836;23.998;2023-03-04T06:13:06;95667.97;;;5.33;100.00
12624;BME280;6377;42.836;23.998;2023-03-04T06:15:33;95693.31;;;5.42;100.00
12624;BME280;6377;42.836;23.998;2023-03-04T06:18:01;95686.38;;;5.51;100.00
12624;BME280;6377;42.836;23.998;2023-03-04T06:20:28;95683.00;;;5.58;100.00
12624;BME280;6377;42.836;23.998;2023-03-04T06:22:55;95684.59;;;5.69;100.00
12624;BME280;6377;42.836;23.998;2023-03-04T06:25:22;95687.84;;;5.81;100.00
12624;BME280;6377;42.836;23.998;2023-03-04T06:27:51;95682.53;;;5.90;100.00
12624;BME280;6377;42.836;23.998;2023-03-04T06:30:18;95682.31;;;6.01;100.00
12624;BME280;6377;42.836;23.998;2023-03-04T06:32:45;95652.97;;;5.88;100.00
12624;BME280;6377;42.836;23.998;2023-03-04T06:35:14;95685.25;;;6.16;100.00
12624;BME280;6377;42.836;23.998;2023-03-04T06:37:42;95619.66;;;5.71;100.00
12624;BME280;6377;42.836;23.998;2023-03-04T06:40:10;95688.00;;;6.14;100.00
12624;BME280;6377;42.836;23.998;2023-03-04T06:42:38;95654.47;;;5.91;100.00
12624;BME280;6377;42.836;23.998;2023-03-04T06:45:08;95687.56;;;6.19;100.00
12624;BME280;6377;42.836;23.998;2023-03-04T06:47:35;95670.16;;;6.00;100.00
12624;BME280;6377;42.836;23.998;2023-03-04T06:50:03;95686.75;;;6.01;100.00
12624;BME280;6377;42.836;23.998;2023-03-04T06:52:30;95658.06;;;5.72;100.00
12624;BME280;6377;42.836;23.998;2023-03-04T06:54:57;95514.25;;;4.87;100.00
12624;BME280;6377;42.836;23.998;2023-03-04T06:57:25;95669.16;;;5.84;100.00
12624;BME280;6377;42.836;23.998;2023-03-04T06:59:52;95681.72;;;6.07;100.00
12624;BME280;6377;42.836;23.998;2023-03-04T07:02:21;95659.41;;;5.76;100.00
12624;BME280;6377;42.836;23.998;2023-03-04T07:04:48;95685.91;;;6.18;100.00
12624;BME280;6377;42.836;23.998;2023-03-04T07:07:15;95694.44;;;6.20;100.00
12624;BME280;6377;42.836;23.998;2023-03-04T07:09:42;95684.03;;;6.28;100.00
12624;BME280;6377;42.836;23.998;2023-03-04T07:12:10;95691.19;;;6.44;100.00
12624;BME280;6377;42.836;23.998;2023-03-04T07:14:37;95694.28;;;6.57;100.00
12624;BME280;6377;42.836;23.998;2023-03-04T07:17:04;95684.16;;;6.70;100.00
12624;BME280;6377;42.836;23.998;2023-03-04T07:19:32;95690.00;;;6.82;100.00
12624;BME280;6377;42.836;23.998;2023-03-04T07:22:00;95682.97;;;6.90;100.00
12624;BME280;6377;42.836;23.998;2023-03-04T07:24:27;95686.44;;;6.91;100.00
12624;BME280;6377;42.836;23.998;2023-03-04T07:26:54;95688.09;;;6.92;100.00
12624;BME280;6377;42.836;23.998;2023-03-04T07:29:21;95681.66;;;6.86;100.00
12624;BME280;6377;42.836;23.998;2023-03-04T07:31:48;95680.22;;;6.92;100.00
12624;BME280;6377;42.836;23.998;2023-03-04T07:34:16;95681.03;;;6.92;100.00
12624;BME280;6377;42.836;23.998;2023-03-04T07:36:44;95710.00;;;7.00;100.00
12624;BME280;6377;42.836;23.998;2023-03-04T07:39:11;95681.22;;;6.99;100.00
12624;BME280;6377;42.836;23.998;2023-03-04T07:41:39;95671.22;;;7.02;100.00
12624;BME280;6377;42.836;23.998;2023-03-04T07:44:07;95637.16;;;6.67;100.00
12624;BME280;6377;42.836;23.998;2023-03-04T07:46:34;95673.69;;;7.04;100.00
12624;BME280;6377;42.836;23.998;2023-03-04T07:49:02;95664.50;;;7.08;100.00
12624;BME280;6377;42.836;23.998;2023-03-04T07:51:30;95678.09;;;7.29;100.00
12624;BME280;6377;42.836;23.998;2023-03-04T07:53:59;95672.06;;;7.37;100.00
12624;BME280;6377;42.836;23.998;2023-03-04T07:56:28;95649.31;;;7.27;100.00
12624;BME280;6377;42.836;23.998;2023-03-04T07:58:56;95679.63;;;7.40;100.00
12624;BME280;6377;42.836;23.998;2023-03-04T08:01:27;95685.53;;;7.42;100.00
12624;BME280;6377;42.836;23.998;2023-03-04T08:03:54;95667.44;;;7.39;100.00
12624;BME280;6377;42.836;23.998;2023-03-04T08:06:23;95677.56;;;7.67;100.00
12624;BME280;6377;42.836;23.998;2023-03-04T08:08:56;95658.81;;;7.62;100.00
12624;BME280;6377;42.836;23.998;2023-03-04T08:11:26;95641.34;;;7.61;100.00
12624;BME280;6377;42.836;23.998;2023-03-04T08:13:55;95679.94;;;7.86;100.00
12624;BME280;6377;42.836;23.998;2023-03-04T08:16:23;95674.50;;;7.96;100.00
12624;BME280;6377;42.836;23.998;2023-03-04T08:18:54;95676.66;;;8.17;100.00
12624;BME280;6377;42.836;23.998;2023-03-04T08:21:23;95674.56;;;8.28;100.00
12624;BME280;6377;42.836;23.998;2023-03-04T08:23:50;95656.28;;;8.43;100.00
12624;BME280;6377;42.836;23.998;2023-03-04T08:26:20;95646.41;;;8.29;100.00
12624;BME280;6377;42.836;23.998;2023-03-04T08:28:50;95650.69;;;8.30;100.00
12624;BME280;6377;42.836;23.998;2023-03-04T08:31:17;95668.81;;;8.49;100.00
12624;BME280;6377;42.836;23.998;2023-03-04T08:33:45;95666.34;;;8.56;100.00
12624;BME280;6377;42.836;23.998;2023-03-04T08:36:13;95671.59;;;8.56;100.00
12624;BME280;6377;42.836;23.998;2023-03-04T08:38:41;95637.53;;;8.54;100.00
12624;BME280;6377;42.836;23.998;2023-03-04T08:41:08;95664.28;;;8.90;100.00
12624;BME280;6377;42.836;23.998;2023-03-04T08:43:35;95621.00;;;8.76;100.00
12624;BME280;6377;42.836;23.998;2023-03-04T08:46:04;95664.44;;;9.13;100.00
12624;BME280;6377;42.836;23.998;2023-03-04T08:48:32;95666.03;;;9.22;100.00
12624;BME280;6377;42.836;23.998;2023-03-04T08:50:59;95660.44;;;9.17;100.00
12624;BME280;6377;42.836;23.998;2023-03-04T08:53:27;95599.56;;;8.79;100.00
12624;BME280;6377;42.836;23.998;2023-03-04T08:55:54;95650.06;;;9.15;100.00
12624;BME280;6377;42.836;23.998;2023-03-04T08:58:21;95652.50;;;9.25;100.00
12624;BME280;6377;42.836;23.998;2023-03-04T09:00:48;95650.56;;;9.19;100.00
12624;BME280;6377;42.836;23.998;2023-03-04T09:03:18;95651.25;;;9.05;100.00
12624;BME280;6377;42.836;23.998;2023-03-04T09:05:46;95657.06;;;8.92;100.00
12624;BME280;6377;42.836;23.998;2023-03-04T09:08:14;95637.44;;;8.94;100.00
12624;BME280;6377;42.836;23.998;2023-03-04T09:10:42;95644.78;;;9.07;100.00
12624;BME280;6377;42.836;23.998;2023-03-04T09:13:10;95598.25;;;8.83;100.00
12624;BME280;6377;42.836;23.998;2023-03-04T09:15:43;95634.50;;;9.28;100.00
12624;BME280;6377;42.836;23.998;2023-03-04T09:18:11;95610.97;;;9.19;100.00
12624;BME280;6377;42.836;23.998;2023-03-04T09:20:40;95630.28;;;9.50;100.00
12624;BME280;6377;42.836;23.998;2023-03-04T09:23:07;95607.38;;;9.42;100.00
12624;BME280;6377;42.836;23.998;2023-03-04T09:25:35;95634.22;;;9.54;100.00
12624;BME280;6377;42.836;23.998;2023-03-04T09:28:03;95620.66;;;9.57;100.00
12624;BME280;6377;42.836;23.998;2023-03-04T09:30:31;95593.09;;;9.29;100.00
12624;BME280;6377;42.836;23.998;2023-03-04T09:32:58;95633.91;;;9.49;100.00
12624;BME280;6377;42.836;23.998;2023-03-04T09:35:26;95616.75;;;9.14;100.00
12624;BME280;6377;42.836;23.998;2023-03-04T09:37:56;95535.06;;;8.51;100.00
12624;BME280;6377;42.836;23.998;2023-03-04T09:40:26;95595.09;;;8.80;100.00
12624;BME280;6377;42.836;23.998;2023-03-04T09:42:56;95592.31;;;8.73;100.00
12624;BME280;6377;42.836;23.998;2023-03-04T09:45:30;95625.91;;;8.87;100.00
12624;BME280;6377;42.836;23.998;2023-03-04T09:47:59;95614.03;;;8.91;100.00
12624;BME280;6377;42.836;23.998;2023-03-04T09:50:28;95621.28;;;8.89;100.00
12624;BME280;6377;42.836;23.998;2023-03-04T09:53:06;95596.50;;;9.07;100.00
12624;BME280;6377;42.836;23.998;2023-03-04T09:55:41;95594.13;;;9.20;100.00
12624;BME280;6377;42.836;23.998;2023-03-04T09:58:19;95606.06;;;9.77;100.00
12624;BME280;6377;42.836;23.998;2023-03-04T10:00:54;95571.22;;;9.51;100.00
12624;BME280;6377;42.836;23.998;2023-03-04T10:03:23;95611.63;;;10.05;100.00
12624;BME280;6377;42.836;23.998;2023-03-04T10:05:54;95602.63;;;10.37;100.00
12624;BME280;6377;42.836;23.998;2023-03-04T10:08:50;95584.63;;;10.55;100.00
12624;BME280;6377;42.836;23.998;2023-03-04T10:11:23;95592.78;;;10.83;100.00
12624;BME280;6377;42.836;23.998;2023-03-04T10:13:57;95591.25;;;11.03;100.00
12624;BME280;6377;42.836;23.998;2023-03-04T10:16:32;95594.03;;;11.16;100.00
12624;BME280;6377;42.836;23.998;2023-03-04T10:19:15;95564.84;;;11.24;100.00
12624;BME280;6377;42.836;23.998;2023-03-04T10:21:47;95582.22;;;11.77;100.00
12624;BME280;6377;42.836;23.998;2023-03-04T10:24:18;95576.78;;;11.85;100.00
12624;BME280;6377;42.836;23.998;2023-03-04T10:26:50;95562.94;;;11.54;100.00
12624;BME280;6377;42.836;23.998;2023-03-04T10:29:21;95575.75;;;11.50;100.00
12624;BME280;6377;42.836;23.998;2023-03-04T10:31:49;95566.66;;;11.38;100.00
12624;BME280;6377;42.836;23.998;2023-03-04T10:34:17;95476.59;;;11.17;100.00
12624;BME280;6377;42.836;23.998;2023-03-04T10:36:57;95559.84;;;12.07;100.00
12624;BME280;6377;42.836;23.998;2023-03-04T10:39:28;95557.50;;;12.68;100.00
12624;BME280;6377;42.836;23.998;2023-03-04T10:41:59;95523.03;;;12.68;100.00
12624;BME280;6377;42.836;23.998;2023-03-04T10:44:27;95547.22;;;12.92;100.00
12624;BME280;6377;42.836;23.998;2023-03-04T10:46:56;95539.28;;;12.58;100.00
12624;BME280;6377;42.836;23.998;2023-03-04T10:49:25;95538.31;;;12.38;100.00
12624;BME280;6377;42.836;23.998;2023-03-04T10:51:54;95515.81;;;12.06;100.00
12624;BME280;6377;42.836;23.998;2023-03-04T10:54:30;95501.31;;;12.02;100.00
12624;BME280;6377;42.836;23.998;2023-03-04T10:57:02;95517.78;;;11.76;100.00
12624;BME280;6377;42.836;23.998;2023-03-04T10:59:33;95525.69;;;11.55;100.00
12624;BME280;6377;42.836;23.998;2023-03-04T11:02:09;95518.25;;;11.44;100.00
12624;BME280;6377;42.836;23.998;2023-03-04T11:04:39;95503.44;;;11.14;100.00
12624;BME280;6377;42.836;23.998;2023-03-04T11:07:08;95504.41;;;11.13;100.00
12624;BME280;6377;42.836;23.998;2023-03-04T11:09:37;95501.34;;;11.09;100.00
12624;BME280;6377;42.836;23.998;2023-03-04T11:12:10;95494.75;;;11.20;100.00
12624;BME280;6377;42.836;23.998;2023-03-04T11:14:40;95431.94;;;10.78;100.00
12624;BME280;6377;42.836;23.998;2023-03-04T11:17:22;95483.91;;;11.15;100.00
12624;BME280;6377;42.836;23.998;2023-03-04T11:19:54;95494.81;;;11.27;100.00
12624;BME280;6377;42.836;23.998;2023-03-04T11:22:23;95463.06;;;11.27;100.00
12624;BME280;6377;42.836;23.998;2023-03-04T11:24:58;95475.91;;;11.51;100.00
12624;BME280;6377;42.836;23.998;2023-03-04T11:27:37;95406.75;;;11.18;100.00
12624;BME280;6377;42.836;23.998;2023-03-04T11:30:31;95468.97;;;11.86;100.00
12624;BME280;6377;42.836;23.998;2023-03-04T11:33:10;95468.13;;;11.85;100.00
12624;BME280;6377;42.836;23.998;2023-03-04T11:35:46;95460.31;;;11.77;100.00
12624;BME280;6377;42.836;23.998;2023-03-04T11:38:17;95456.13;;;11.89;100.00
12624;BME280;6377;42.836;23.998;2023-03-04T11:40:49;95450.44;;;11.92;100.00
12624;BME280;6377;42.836;23.998;2023-03-04T11:43:22;95442.13;;;12.23;100.00
12624;BME280;6377;42.836;23.998;2023-03-04T11:46:11;95441.19;;;12.37;100.00
12624;BME280;6377;42.836;23.998;2023-03-04T11:48:50;95379.44;;;12.15;99.47
12624;BME280;6377;42.836;23.998;2023-03-04T11:51:23;95439.75;;;12.75;100.00
12624;BME280;6377;42.836;23.998;2023-03-04T11:54:13;95429.56;;;13.26;100.00
12624;BME280;6377;42.836;23.998;2023-03-04T11:56:45;95378.50;;;13.31;90.82
12624;BME280;6377;42.836;23.998;2023-03-04T12:02:30;95420.03;;;14.04;87.97
12624;BME280;6377;42.836;23.998;2023-03-04T12:05:13;95427.41;;;14.09;87.85
12624;BME280;6377;42.836;23.998;2023-03-04T12:08:25;95410.03;;;13.73;86.18
12624;BME280;6377;42.836;23.998;2023-03-04T12:11:01;95344.44;;;12.80;87.12
12624;BME280;6377;42.836;23.998;2023-03-04T12:14:05;95406.63;;;13.12;87.78
12624;BME280;6377;42.836;23.998;2023-03-04T12:16:52;95405.84;;;13.12;89.51
12624;BME280;6377;42.836;23.998;2023-03-04T12:19:29;95385.03;;;12.68;86.73
12624;BME280;6377;42.836;23.998;2023-03-04T12:22:33;95348.84;;;12.47;88.70
12624;BME280;6377;42.836;23.998;2023-03-04T12:25:31;95328.16;;;12.29;87.82
12624;BME280;6377;42.836;23.998;2023-03-04T12:31:08;95294.31;;;12.38;88.34
12624;BME280;6377;42.836;23.998;2023-03-04T12:33:43;95392.69;;;13.04;87.68
12624;BME280;6377;42.836;23.998;2023-03-04T12:36:22;95343.38;;;12.68;86.05
12624;BME280;6377;42.836;23.998;2023-03-04T12:38:59;95369.84;;;13.03;85.97
12624;BME280;6377;42.836;23.998;2023-03-04T12:41:36;95375.34;;;13.01;84.32
12624;BME280;6377;42.836;23.998;2023-03-04T12:44:12;95288.75;;;12.26;88.27
12624;BME280;6377;42.836;23.998;2023-03-04T12:47:04;95270.88;;;12.01;92.57
12624;BME280;6377;42.836;23.998;2023-03-04T12:49:43;95372.34;;;12.63;93.70
12624;BME280;6377;42.836;23.998;2023-03-04T12:52:16;95324.84;;;12.21;94.55
12624;BME280;6377;42.836;23.998;2023-03-04T12:54:50;95365.28;;;12.36;93.55
12624;BME280;6377;42.836;23.998;2023-03-04T12:57:23;95355.06;;;12.33;95.33
12624;BME280;6377;42.836;23.998;2023-03-04T12:59:55;95331.19;;;11.92;96.31
12624;BME280;6377;42.836;23.998;2023-03-04T13:02:49;95358.59;;;12.06;97.51
12624;BME280;6377;42.836;23.998;2023-03-04T13:05:28;95351.88;;;12.10;94.60
12624;BME280;6377;42.836;23.998;2023-03-04T13:08:05;95365.41;;;12.15;94.78
12624;BME280;6377;42.836;23.998;2023-03-04T13:10:34;95179.34;;;11.23;95.76
12624;BME280;6377;42.836;23.998;2023-03-04T13:13:02;95308.19;;;11.99;95.37
12624;BME280;6377;42.836;23.998;2023-03-04T13:15:33;95212.47;;;11.12;96.12
12624;BME280;6377;42.836;23.998;2023-03-04T13:18:29;95226.47;;;11.06;96.81
12624;BME280;6377;42.836;23.998;2023-03-04T13:21:16;95340.84;;;11.72;98.37